createdAt,value
2017-09-06T00:01:47.918Z,4.27
2017-09-06T00:04:14.177Z,3.43
2017-09-06T00:06:40.511Z,4.07
2017-09-06T00:09:06.791Z,4.07
2017-09-06T00:11:33.045Z,3.60
2017-09-06T00:13:59.305Z,3.37
2017-09-06T00:16:25.623Z,2.97
2017-09-06T00:18:52.517Z,3.20
2017-09-06T00:21:19.695Z,2.90
2017-09-06T00:23:46.915Z,3.13
2017-09-06T00:26:13.213Z,3.17
2017-09-06T00:28:39.454Z,2.47
2017-09-06T00:31:05.726Z,3.10
2017-09-06T00:33:32.003Z,3.10
2017-09-06T00:35:58.294Z,2.73
2017-09-06T00:38:24.638Z,2.87
2017-09-06T00:40:50.860Z,2.27
2017-09-06T00:43:17.895Z,2.30
2017-09-06T00:45:45.033Z,2.70
2017-09-06T00:48:11.307Z,2.97
2017-09-06T00:50:37.627Z,2.60
2017-09-06T00:53:03.887Z,2.83
2017-09-06T00:55:30.234Z,2.57
2017-09-06T00:57:56.526Z,2.40
2017-09-06T01:00:22.767Z,2.23
2017-09-06T01:02:49.014Z,2.40
2017-09-06T01:05:15.254Z,1.90
2017-09-06T01:07:41.499Z,2.23
2017-09-06T01:10:07.762Z,2.63
2017-09-06T01:12:34.015Z,2.23
2017-09-06T01:15:00.301Z,2.33
2017-09-06T01:17:26.623Z,2.20
2017-09-06T01:19:52.890Z,2.37
2017-09-06T01:22:19.126Z,2.00
2017-09-06T01:24:45.438Z,2.30
2017-09-06T01:27:13.670Z,2.17
2017-09-06T01:29:40.953Z,2.13
2017-09-06T01:32:07.191Z,2.10
2017-09-06T01:34:33.421Z,2.10
2017-09-06T01:36:59.653Z,2.30
2017-09-06T01:39:25.926Z,2.10
2017-09-06T01:41:53.601Z,2.47
2017-09-06T01:44:19.854Z,2.33
2017-09-06T01:46:46.131Z,2.40
2017-09-06T01:49:12.379Z,2.60
2017-09-06T01:51:38.638Z,2.30
2017-09-06T01:54:04.895Z,2.10
2017-09-06T01:56:31.167Z,2.13
2017-09-06T01:58:57.462Z,2.07
2017-09-06T02:01:23.706Z,2.33
2017-09-06T02:03:49.920Z,2.53
2017-09-06T02:06:16.197Z,2.53
2017-09-06T02:08:42.510Z,2.03
2017-09-06T02:11:08.727Z,2.20
2017-09-06T02:13:34.981Z,2.37
2017-09-06T02:16:01.245Z,2.20
2017-09-06T02:18:27.509Z,2.50
2017-09-06T02:20:53.764Z,2.80
2017-09-06T02:23:21.020Z,2.90
2017-09-06T02:25:47.279Z,2.70
2017-09-06T02:28:13.539Z,2.70
2017-09-06T02:30:40.716Z,3.10
2017-09-06T02:33:10.454Z,3.40
2017-09-06T02:35:36.711Z,2.80
2017-09-06T02:38:03.782Z,2.83
2017-09-06T02:40:30.639Z,2.73
2017-09-06T02:42:56.886Z,2.50
2017-09-06T02:45:23.151Z,2.60
2017-09-06T02:47:49.426Z,2.50
2017-09-06T02:50:15.904Z,2.47
2017-09-06T02:52:42.172Z,2.93
2017-09-06T02:55:08.436Z,2.70
2017-09-06T02:57:34.695Z,2.97
2017-09-06T03:00:01.887Z,3.17
2017-09-06T03:02:28.141Z,2.90
2017-09-06T03:04:55.290Z,3.00
2017-09-06T03:07:22.538Z,2.90
2017-09-06T03:09:49.723Z,2.80
2017-09-06T03:12:16.062Z,2.50
2017-09-06T03:14:42.324Z,2.60
2017-09-06T03:17:08.611Z,2.10
2017-09-06T03:19:34.865Z,2.43
2017-09-06T03:22:02.052Z,2.30
2017-09-06T03:24:28.334Z,2.77
2017-09-06T03:26:54.604Z,2.43
2017-09-06T03:29:20.880Z,2.47
2017-09-06T03:31:47.229Z,2.43
2017-09-06T03:34:13.514Z,2.40
2017-09-06T03:36:39.765Z,2.50
2017-09-06T03:39:06.005Z,2.20
2017-09-06T03:41:32.310Z,2.63
2017-09-06T03:43:58.650Z,2.30
2017-09-06T03:46:24.883Z,2.50
2017-09-06T03:48:51.963Z,2.17
2017-09-06T03:51:18.231Z,2.67
2017-09-06T03:53:44.543Z,2.50
2017-09-06T03:56:10.804Z,2.13
2017-09-06T03:58:37.146Z,2.77
2017-09-06T04:01:03.372Z,2.50
2017-09-06T04:03:29.607Z,2.93
2017-09-06T04:05:55.848Z,2.53
2017-09-06T04:08:22.145Z,2.30
2017-09-06T04:10:49.191Z,2.77
2017-09-06T04:13:15.738Z,2.33
2017-09-06T04:15:41.973Z,2.57
2017-09-06T04:18:08.232Z,2.60
2017-09-06T04:20:34.482Z,2.83
2017-09-06T04:23:00.738Z,3.20
2017-09-06T04:25:27.015Z,2.80
2017-09-06T04:27:53.266Z,2.93
2017-09-06T04:30:19.526Z,3.70
2017-09-06T04:32:45.758Z,2.60
2017-09-06T04:35:12.035Z,3.00
2017-09-06T04:37:38.261Z,3.03
2017-09-06T04:40:04.526Z,2.53
2017-09-06T04:42:30.764Z,2.70
2017-09-06T04:44:57.026Z,2.80
2017-09-06T04:47:23.291Z,2.97
2017-09-06T04:49:49.526Z,2.90
2017-09-06T04:52:15.810Z,3.20
2017-09-06T04:54:42.040Z,2.90
2017-09-06T04:57:08.787Z,2.77
2017-09-06T04:59:35.084Z,2.90
2017-09-06T05:02:01.338Z,3.10
2017-09-06T05:04:27.575Z,3.60
2017-09-06T05:06:53.843Z,3.83
2017-09-06T05:09:20.058Z,3.27
2017-09-06T05:11:46.293Z,3.67
2017-09-06T05:14:12.527Z,3.73
2017-09-06T05:16:38.910Z,3.20
2017-09-06T05:19:05.161Z,3.77
2017-09-06T05:21:31.412Z,2.80
2017-09-06T05:23:57.699Z,3.50
2017-09-06T05:26:23.885Z,2.80
2017-09-06T05:28:50.170Z,3.40
2017-09-06T05:31:16.425Z,4.07
2017-09-06T05:33:42.665Z,4.77
2017-09-06T05:36:08.904Z,4.70
2017-09-06T05:38:35.135Z,4.77
2017-09-06T05:41:01.365Z,4.43
2017-09-06T05:43:27.694Z,5.40
2017-09-06T05:45:53.949Z,4.60
2017-09-06T05:48:20.186Z,5.10
2017-09-06T05:50:52.386Z,5.70
2017-09-06T05:53:21.213Z,4.93
2017-09-06T05:55:47.508Z,5.20
2017-09-06T05:58:13.736Z,5.60
2017-09-06T06:00:39.996Z,5.10
2017-09-06T06:03:06.264Z,5.80
2017-09-06T06:05:32.509Z,5.40
2017-09-06T06:07:58.730Z,4.50
2017-09-06T06:10:24.962Z,5.30
2017-09-06T06:12:51.193Z,4.80
2017-09-06T06:15:17.497Z,5.20
2017-09-06T06:17:43.709Z,3.93
2017-09-06T06:20:09.958Z,3.90
2017-09-06T06:22:36.181Z,4.80
2017-09-06T06:25:02.402Z,5.80
2017-09-06T06:27:28.630Z,7.27
2017-09-06T06:29:54.862Z,8.17
2017-09-06T06:32:21.114Z,9.77
2017-09-06T06:34:47.330Z,12.37
2017-09-06T06:37:13.658Z,12.67
2017-09-06T06:39:39.909Z,14.13
2017-09-06T06:42:06.156Z,14.27
2017-09-06T06:44:32.402Z,15.57
2017-09-06T06:46:58.652Z,15.03
2017-09-06T06:49:24.886Z,14.77
2017-09-06T06:51:51.131Z,14.90
2017-09-06T06:54:17.438Z,15.33
2017-09-06T06:56:43.686Z,16.23
2017-09-06T06:59:09.939Z,15.73
2017-09-06T07:01:36.138Z,16.20
2017-09-06T07:04:02.393Z,14.90
2017-09-06T07:06:28.618Z,15.83
2017-09-06T07:08:54.888Z,14.03
2017-09-06T07:11:21.243Z,13.57
2017-09-06T07:13:47.466Z,12.00
2017-09-06T07:16:13.668Z,10.97
2017-09-06T07:18:39.907Z,10.63
2017-09-06T07:21:06.137Z,10.23
2017-09-06T07:23:32.350Z,8.43
2017-09-06T07:25:58.610Z,6.20
2017-09-06T07:28:24.865Z,5.90
2017-09-06T07:30:51.106Z,5.37
2017-09-06T07:33:17.357Z,6.20
2017-09-06T07:35:43.609Z,5.57
2017-09-06T07:38:09.839Z,5.40
2017-09-06T07:40:36.142Z,5.73
2017-09-06T07:43:02.404Z,7.70
2017-09-06T07:45:28.592Z,8.80
2017-09-06T07:47:54.919Z,10.00
2017-09-06T07:50:21.174Z,11.57
2017-09-06T07:52:47.445Z,14.27
2017-09-06T07:55:13.690Z,14.13
2017-09-06T07:57:39.943Z,14.97
2017-09-06T08:00:06.215Z,15.80
2017-09-06T08:02:32.506Z,15.87
2017-09-06T08:04:58.758Z,17.13
2017-09-06T08:07:25.031Z,15.33
2017-09-06T08:09:51.258Z,17.77
2017-09-06T08:12:17.488Z,14.27
2017-09-06T08:14:43.711Z,9.97
2017-09-06T08:17:09.987Z,6.27
2017-09-06T08:19:36.298Z,4.20
2017-09-06T08:22:02.574Z,3.10
2017-09-06T08:24:28.902Z,3.10
2017-09-06T08:26:55.134Z,3.80
2017-09-06T08:29:21.394Z,4.77
2017-09-06T08:31:48.024Z,5.50
2017-09-06T08:34:14.274Z,4.70
2017-09-06T08:36:40.504Z,4.40
2017-09-06T08:39:06.759Z,4.70
2017-09-06T08:41:32.968Z,5.57
2017-09-06T08:43:59.199Z,5.17
2017-09-06T08:46:25.424Z,6.43
2017-09-06T08:48:51.642Z,7.87
2017-09-06T08:51:17.910Z,6.63
2017-09-06T08:53:44.132Z,7.87
2017-09-06T08:56:10.349Z,9.37
2017-09-06T08:58:36.595Z,9.10
2017-09-06T09:01:02.838Z,9.17
2017-09-06T09:03:29.082Z,8.40
2017-09-06T09:05:55.338Z,8.30
2017-09-06T09:08:21.574Z,8.27
2017-09-06T09:10:47.824Z,9.90
2017-09-06T09:13:14.049Z,11.80
2017-09-06T09:15:40.298Z,11.60
2017-09-06T09:18:06.519Z,11.83
2017-09-06T09:20:32.746Z,11.13
2017-09-06T09:22:58.994Z,12.93
2017-09-06T09:25:25.231Z,11.50
2017-09-06T09:27:51.564Z,11.50
2017-09-06T09:30:17.810Z,12.90
2017-09-06T09:32:44.085Z,12.27
2017-09-06T09:35:10.314Z,11.77
2017-09-06T09:37:36.527Z,9.50
2017-09-06T09:40:02.814Z,8.07
2017-09-06T09:42:29.061Z,9.70
2017-09-06T09:44:55.305Z,9.30
2017-09-06T09:47:21.586Z,10.63
2017-09-06T09:49:47.821Z,10.43
2017-09-06T09:52:14.042Z,11.30
2017-09-06T09:54:40.272Z,10.80
2017-09-06T09:57:06.446Z,10.40
2017-09-06T09:59:32.674Z,10.60
2017-09-06T10:01:58.978Z,10.10
2017-09-06T10:04:25.230Z,8.67
2017-09-06T10:06:51.487Z,7.47
2017-09-06T10:09:17.714Z,8.50
2017-09-06T10:11:43.898Z,8.50
2017-09-06T10:14:10.874Z,8.50
2017-09-06T10:16:37.106Z,8.50
2017-09-06T10:19:03.339Z,7.30
2017-09-06T10:21:29.581Z,6.63
2017-09-06T10:23:55.863Z,6.60
2017-09-06T10:26:22.114Z,6.30
2017-09-06T10:28:48.398Z,5.27
2017-09-06T10:31:14.626Z,7.37
2017-09-06T10:33:40.924Z,4.60
2017-09-06T10:36:07.168Z,4.23
2017-09-06T10:38:33.400Z,3.80
2017-09-06T10:40:59.618Z,3.50
2017-09-06T10:43:25.846Z,3.90
2017-09-06T10:45:52.101Z,3.27
2017-09-06T10:48:18.368Z,3.23
2017-09-06T10:50:44.608Z,3.67
2017-09-06T10:53:10.852Z,4.13
2017-09-06T10:55:37.108Z,4.47
2017-09-06T10:58:03.340Z,4.10
2017-09-06T11:00:29.581Z,4.67
2017-09-06T11:02:55.863Z,4.03
2017-09-06T11:05:22.103Z,4.77
2017-09-06T11:07:48.377Z,4.30
2017-09-06T11:10:14.597Z,3.23
2017-09-06T11:12:40.939Z,3.60
2017-09-06T11:15:07.184Z,2.40
2017-09-06T11:17:33.418Z,3.17
2017-09-06T11:19:59.661Z,2.63
2017-09-06T11:22:25.921Z,2.10
2017-09-06T11:24:52.242Z,2.17
2017-09-06T11:27:18.407Z,2.07
2017-09-06T11:29:44.625Z,1.97
2017-09-06T11:32:10.830Z,1.90
2017-09-06T11:34:37.065Z,2.23
2017-09-06T11:37:03.281Z,2.43
2017-09-06T11:39:29.696Z,2.40
2017-09-06T11:41:55.980Z,2.63
2017-09-06T11:44:22.217Z,2.40
2017-09-06T11:46:48.428Z,2.43
2017-09-06T11:49:14.680Z,2.47
2017-09-06T11:51:40.930Z,2.63
2017-09-06T11:54:07.167Z,2.70
2017-09-06T11:56:33.431Z,2.90
2017-09-06T11:58:59.723Z,3.03
2017-09-06T12:01:25.958Z,3.17
2017-09-06T12:03:52.232Z,3.20
2017-09-06T12:06:18.450Z,2.30
2017-09-06T12:08:44.702Z,2.67
2017-09-06T12:11:10.957Z,2.80
2017-09-06T12:13:37.198Z,2.63
2017-09-06T12:16:04.035Z,2.37
2017-09-06T12:18:30.289Z,2.37
2017-09-06T12:20:56.570Z,2.70
2017-09-06T12:23:22.803Z,2.00
2017-09-06T12:25:49.058Z,2.43
2017-09-06T12:28:15.331Z,2.20
2017-09-06T12:30:41.580Z,2.60
2017-09-06T12:33:07.830Z,2.43
2017-09-06T12:35:34.092Z,2.27
2017-09-06T12:38:01.059Z,3.63
2017-09-06T12:40:27.567Z,2.70
2017-09-06T12:42:53.806Z,2.27
2017-09-06T12:45:20.057Z,2.90
2017-09-06T12:47:46.318Z,2.17
2017-09-06T12:50:12.526Z,2.93
2017-09-06T12:52:38.746Z,2.13
2017-09-06T12:55:04.986Z,2.63
2017-09-06T12:57:31.229Z,2.27
2017-09-06T12:59:57.345Z,2.00
2017-09-06T13:02:23.365Z,2.53
2017-09-06T13:04:49.578Z,3.27
2017-09-06T13:07:15.773Z,3.43
2017-09-06T13:09:42.193Z,2.60
2017-09-06T13:12:08.686Z,2.93
2017-09-06T13:14:35.189Z,2.80
2017-09-06T13:17:01.672Z,2.53
2017-09-06T13:19:28.203Z,3.17
2017-09-06T13:21:54.579Z,2.70
2017-09-06T13:24:20.953Z,2.17
2017-09-06T13:26:47.392Z,2.63
2017-09-06T13:29:13.706Z,2.10
2017-09-06T13:31:40.393Z,2.37
2017-09-06T13:34:06.730Z,2.27
2017-09-06T13:36:33.462Z,2.90
2017-09-06T13:39:00.077Z,3.10
2017-09-06T13:41:26.328Z,2.67
2017-09-06T13:43:52.736Z,3.00
2017-09-06T13:46:19.081Z,3.17
2017-09-06T13:48:45.430Z,2.97
2017-09-06T13:51:11.902Z,2.47
2017-09-06T13:53:38.169Z,3.10
2017-09-06T13:56:04.533Z,2.60
2017-09-06T13:58:31.035Z,3.53
2017-09-06T14:00:57.312Z,2.80
2017-09-06T14:03:23.815Z,2.70
2017-09-06T14:05:50.185Z,2.60
2017-09-06T14:08:16.438Z,2.57
2017-09-06T14:10:42.817Z,2.20
2017-09-06T14:13:09.077Z,3.77
2017-09-06T14:15:35.406Z,2.97
2017-09-06T14:18:01.682Z,2.63
2017-09-06T14:20:27.897Z,2.70
2017-09-06T14:22:54.446Z,2.10
2017-09-06T14:25:20.725Z,2.27
2017-09-06T14:27:47.103Z,3.43
2017-09-06T14:30:13.443Z,2.70
2017-09-06T14:32:39.711Z,3.57
2017-09-06T14:35:06.011Z,2.63
2017-09-06T14:37:32.326Z,3.00
2017-09-06T14:39:58.586Z,3.33
2017-09-06T14:42:24.873Z,3.90
2017-09-06T14:44:51.145Z,3.43
2017-09-06T14:47:17.378Z,2.70
2017-09-06T14:49:43.650Z,3.40
2017-09-06T14:52:10.346Z,3.13
2017-09-06T14:54:36.816Z,3.50
2017-09-06T14:57:03.133Z,3.30
2017-09-06T14:59:30.426Z,3.43
2017-09-06T15:01:56.741Z,3.40
2017-09-06T15:04:23.070Z,2.83
2017-09-06T15:06:49.331Z,2.83
2017-09-06T15:09:15.614Z,3.23
2017-09-06T15:11:41.861Z,2.90
2017-09-06T15:14:08.179Z,3.83
2017-09-06T15:16:34.518Z,3.50
2017-09-06T15:19:00.826Z,3.50
2017-09-06T15:21:27.064Z,3.47
2017-09-06T15:23:53.349Z,3.77
2017-09-06T15:26:19.611Z,3.60
2017-09-06T15:28:45.890Z,2.63
2017-09-06T15:31:12.170Z,3.50
2017-09-06T15:33:38.408Z,3.20
2017-09-06T15:36:04.760Z,3.40
2017-09-06T15:38:31.217Z,3.00
2017-09-06T15:40:57.502Z,3.67
2017-09-06T15:43:23.727Z,3.40
2017-09-06T15:45:50.042Z,4.07
2017-09-06T15:48:16.294Z,4.03
2017-09-06T15:50:42.674Z,3.43
2017-09-06T15:53:08.718Z,3.03
2017-09-06T15:55:34.778Z,3.30
2017-09-06T15:58:00.819Z,2.90
2017-09-06T16:00:26.868Z,3.40
2017-09-06T16:02:53.015Z,3.53
2017-09-06T16:05:19.330Z,3.07
2017-09-06T16:07:45.579Z,3.43
2017-09-06T16:10:11.946Z,2.60
2017-09-06T16:12:38.446Z,3.63
2017-09-06T16:15:04.684Z,2.70
2017-09-06T16:17:30.937Z,3.27
2017-09-06T16:19:57.297Z,3.60
2017-09-06T16:22:23.538Z,3.37
2017-09-06T16:24:49.823Z,2.90
2017-09-06T16:27:16.194Z,3.73
2017-09-06T16:29:42.533Z,3.97
2017-09-06T16:32:08.762Z,2.97
2017-09-06T16:34:34.997Z,3.33
2017-09-06T16:37:01.252Z,3.20
2017-09-06T16:39:27.489Z,2.73
2017-09-06T16:41:53.749Z,4.03
2017-09-06T16:44:19.990Z,3.60
2017-09-06T16:46:46.322Z,3.10
2017-09-06T16:49:12.549Z,3.80
2017-09-06T16:51:38.808Z,3.30
2017-09-06T16:54:05.123Z,3.23
2017-09-06T16:56:31.511Z,3.93
2017-09-06T16:58:57.734Z,3.60
2017-09-06T17:01:23.990Z,3.43
2017-09-06T17:03:50.274Z,3.20
2017-09-06T17:06:16.590Z,3.40
2017-09-06T17:08:42.846Z,3.80
2017-09-06T17:11:08.891Z,2.80
2017-09-06T17:13:34.935Z,2.53
2017-09-06T17:16:00.982Z,3.40
2017-09-06T17:18:27.018Z,3.40
2017-09-06T17:20:53.089Z,3.57
2017-09-06T17:23:19.221Z,4.53
2017-09-06T17:25:45.449Z,3.70
2017-09-06T17:28:11.767Z,3.77
2017-09-06T17:30:38.042Z,3.47
2017-09-06T17:33:04.334Z,4.70
2017-09-06T17:35:30.577Z,3.63
2017-09-06T17:37:56.958Z,3.60
2017-09-06T17:40:23.215Z,3.70
2017-09-06T17:42:49.467Z,3.77
2017-09-06T17:45:15.717Z,3.67
2017-09-06T17:47:42.737Z,3.63
2017-09-06T17:50:09.076Z,2.90
2017-09-06T17:52:35.310Z,3.73
2017-09-06T17:55:01.591Z,3.50
2017-09-06T17:57:27.917Z,4.20
2017-09-06T17:59:54.166Z,4.40
2017-09-06T18:02:20.436Z,3.93
2017-09-06T18:04:46.714Z,3.70
2017-09-06T18:07:12.774Z,4.20
2017-09-06T18:09:38.830Z,4.60
2017-09-06T18:12:05.433Z,4.47
2017-09-06T18:14:31.501Z,4.10
2017-09-06T18:16:57.559Z,5.60
2017-09-06T18:19:23.603Z,4.87
2017-09-06T18:21:49.654Z,5.83
2017-09-06T18:24:15.854Z,4.87
2017-09-06T18:26:42.077Z,5.00
2017-09-06T18:29:08.306Z,5.17
2017-09-06T18:31:34.578Z,4.70
2017-09-06T18:34:00.874Z,4.90
2017-09-06T18:36:27.146Z,4.80
2017-09-06T18:38:53.470Z,4.57
2017-09-06T18:41:19.799Z,6.03
2017-09-06T18:43:46.127Z,5.80
2017-09-06T18:46:12.393Z,4.83
2017-09-06T18:48:42.180Z,6.77
2017-09-06T18:51:08.391Z,5.70
2017-09-06T18:53:36.674Z,5.30
2017-09-06T18:56:02.890Z,4.80
2017-09-06T18:58:29.179Z,5.70
2017-09-06T19:00:55.449Z,6.17
2017-09-06T19:03:21.895Z,5.70
2017-09-06T19:05:49.010Z,5.60
2017-09-06T19:08:15.296Z,4.90
2017-09-06T19:10:41.638Z,5.60
2017-09-06T19:13:07.986Z,6.40
2017-09-06T19:15:34.238Z,5.17
2017-09-06T19:18:00.493Z,5.07
2017-09-06T19:20:26.844Z,5.73
2017-09-06T19:22:53.146Z,5.23
2017-09-06T19:25:19.414Z,5.20
2017-09-06T19:27:45.673Z,4.87
2017-09-06T19:30:11.959Z,4.90
2017-09-06T19:32:38.029Z,5.83
2017-09-06T19:35:04.163Z,4.70
2017-09-06T19:37:30.226Z,4.90
2017-09-06T19:39:56.300Z,5.43
2017-09-06T19:42:22.379Z,5.30
2017-09-06T19:44:48.499Z,4.37
2017-09-06T19:47:14.746Z,4.73
2017-09-06T19:49:41.067Z,5.30
2017-09-06T19:52:07.335Z,5.53
2017-09-06T19:54:34.519Z,4.47
2017-09-06T19:57:00.927Z,4.63
2017-09-06T19:59:27.218Z,4.40
2017-09-06T20:01:53.522Z,4.73
2017-09-06T20:04:19.915Z,3.60
2017-09-06T20:06:46.979Z,3.97
2017-09-06T20:09:13.296Z,4.43
2017-09-06T20:11:39.776Z,3.53
2017-09-06T20:14:06.035Z,3.33
2017-09-06T20:16:32.235Z,3.30
2017-09-06T20:18:58.546Z,3.37
2017-09-06T20:21:24.790Z,3.10
2017-09-06T20:23:51.047Z,2.87
2017-09-06T20:26:17.271Z,3.23
2017-09-06T20:28:43.510Z,3.23
2017-09-06T20:31:09.740Z,3.63
2017-09-06T20:33:36.119Z,3.43
2017-09-06T20:36:02.369Z,3.97
2017-09-06T20:38:28.645Z,4.23
2017-09-06T20:40:54.887Z,5.93
2017-09-06T20:43:21.134Z,4.47
2017-09-06T20:45:47.378Z,4.10
2017-09-06T20:48:13.425Z,3.67
2017-09-06T20:50:39.733Z,3.90
2017-09-06T20:53:05.983Z,4.10
2017-09-06T20:55:32.378Z,3.93
2017-09-06T20:57:58.634Z,4.57
2017-09-06T21:00:24.876Z,4.40
2017-09-06T21:02:51.090Z,4.77
2017-09-06T21:05:17.406Z,4.10
2017-09-06T21:07:43.643Z,4.60
2017-09-06T21:10:09.934Z,4.23
2017-09-06T21:12:36.171Z,3.90
2017-09-06T21:15:07.307Z,4.50
2017-09-06T21:17:33.629Z,4.53
2017-09-06T21:19:59.915Z,4.40
2017-09-06T21:22:26.228Z,5.57
2017-09-06T21:24:52.515Z,5.10
2017-09-06T21:27:18.781Z,4.33
2017-09-06T21:29:45.152Z,4.00
2017-09-06T21:32:11.201Z,3.67
2017-09-06T21:34:37.266Z,4.10
2017-09-06T21:37:03.295Z,3.80
2017-09-06T21:39:29.409Z,4.07
2017-09-06T21:41:55.437Z,3.43
2017-09-06T21:44:21.458Z,4.07
2017-09-06T21:46:48.426Z,3.50
2017-09-06T21:49:14.637Z,4.40
2017-09-06T21:51:40.967Z,4.27
2017-09-06T21:54:07.182Z,6.60
2017-09-06T21:56:34.555Z,4.60
2017-09-06T21:59:00.857Z,3.30
2017-09-06T22:01:27.102Z,5.30
2017-09-06T22:03:53.206Z,4.10
2017-09-06T22:06:19.267Z,4.30
2017-09-06T22:08:45.306Z,4.40
2017-09-06T22:11:11.386Z,3.70
2017-09-06T22:13:38.385Z,3.83
2017-09-06T22:16:04.666Z,4.17
2017-09-06T22:18:30.933Z,3.97
2017-09-06T22:20:58.962Z,4.23
2017-09-06T22:23:25.226Z,4.20
2017-09-06T22:25:51.528Z,4.50
2017-09-06T22:28:17.767Z,4.30
2017-09-06T22:30:44.001Z,3.90
2017-09-06T22:33:10.243Z,5.37
2017-09-06T22:35:36.493Z,5.37
2017-09-06T22:38:02.721Z,4.40
2017-09-06T22:40:29.037Z,3.60
2017-09-06T22:42:55.253Z,4.60
2017-09-06T22:45:21.482Z,4.30
2017-09-06T22:47:47.719Z,4.90
2017-09-06T22:50:13.974Z,4.83
2017-09-06T22:52:40.205Z,4.47
2017-09-06T22:55:06.430Z,5.80
2017-09-06T22:57:32.661Z,4.40
2017-09-06T22:59:58.998Z,4.03
2017-09-06T23:02:25.042Z,3.50
2017-09-06T23:04:51.126Z,5.13
2017-09-06T23:07:17.446Z,4.13
2017-09-06T23:09:43.693Z,4.60
2017-09-06T23:12:09.916Z,4.30
2017-09-06T23:14:36.126Z,4.37
2017-09-06T23:17:02.351Z,4.60
2017-09-06T23:19:28.561Z,4.80
2017-09-06T23:21:54.818Z,4.20
2017-09-06T23:24:21.042Z,5.50
2017-09-06T23:26:47.264Z,4.60
2017-09-06T23:29:13.481Z,6.00
2017-09-06T23:31:39.722Z,6.00
2017-09-06T23:34:05.951Z,5.40
2017-09-06T23:36:32.172Z,5.50
2017-09-06T23:38:58.440Z,5.53
2017-09-06T23:41:24.668Z,4.73
2017-09-06T23:43:50.882Z,5.30
2017-09-06T23:46:17.327Z,5.50
2017-09-06T23:48:44.617Z,5.30
2017-09-06T23:51:11.248Z,5.10
2017-09-06T23:53:37.634Z,6.10
2017-09-06T23:56:04.019Z,6.20
2017-09-06T23:58:31.173Z,4.20
